• Join FlightAware (Why Join?)
  • Login
  • US Flag GB Flag 
06:33 EDT


 

Airport Tracker/Info


-or-


 

Live Flight TrackerFlight Track Log ✈ SKW5517 ✈ 03-May-2013 ✈ KGFK - KDEN

Flight Track Log - Related Links

Times and Time Zones

All times are in EDT time to prevent confusion due to time zone crossing. See the SKW5517 flight status page for this flight to view local times or setup timezone preferences in your user account.

Time Position Orientation Groundspeed Altitude Reporting Facility
EDT Latitude Longitude Course Direction KTS MPH feet Rate Location/Type
18:03 47.9661 -97.1822 North 157 181 1,800  Level Minneapolis Center
18:03 48.0017 -97.1797 North 187 215 3,500 1,800 Climbing Minneapolis Center
18:04 48.0261 -97.1789 North 191 220 3,900 1,920 Climbing Minneapolis Center
18:04 48.0683 -97.1753 North 216 249 5,600 2,100 Climbing Minneapolis Center
18:05 48.0881 -97.1767 357° North 205 236 6,100 2,280 Climbing Minneapolis Center
18:06 48.1439 -97.2381 324° Northwest 253 291 8,800 2,460 Climbing Minneapolis Center
18:07 48.1011 -97.3372 237° Southwest 292 336 11,300 2,040 Climbing Minneapolis Center
18:08 48.0239 -97.4194 215° Southwest 320 368 13,000 1,800 Climbing Minneapolis Center
18:09 47.9464 -97.5111 218° Southwest 340 391 15,000 2,100 Climbing Minneapolis Center
18:10 47.8486 -97.6261 218° Southwest 359 413 17,400 2,160 Climbing Minneapolis Center
18:11 47.7675 -97.7217 218° Southwest 369 425 19,500 1,680 Climbing Minneapolis Center
18:12 47.6878 -97.8153 218° Southwest 369 425 20,900 1,320 Climbing Minneapolis Center
18:13 47.6086 -97.9089 219° Southwest 369 425 22,300 1,380 Climbing Minneapolis Center
18:14 47.5136 -98.0161 217° Southwest 372 428 23,800 1,320 Climbing Minneapolis Center
18:15 47.4342 -98.1092 218° Southwest 371 427 25,100 1,080 Climbing Minneapolis Center
18:16 47.3539 -98.2019 218° Southwest 370 426 26,100 780 Climbing Minneapolis Center
18:17 47.2717 -98.2958 218° Southwest 374 430 26,800 720 Climbing Minneapolis Center
18:18 47.1878 -98.3900 217° Southwest 378 435 27,600 840 Climbing Minneapolis Center
18:19 47.1039 -98.4869 218° Southwest 383 441 28,600 1,020 Climbing Minneapolis Center
18:20 47.0042 -98.6008 218° Southwest 381 438 29,800 1,020 Climbing Minneapolis Center
18:21 46.9211 -98.6925 217° Southwest 377 434 30,800 900 Climbing Minneapolis Center
18:22 46.8325 -98.7667 210° Southwest 370 426 31,700 540 Climbing Minneapolis Center
18:23 46.7439 -98.8417 210° Southwest 368 423 32,000 120 Climbing Minneapolis Center
18:24 46.6508 -98.9208 210° Southwest 381 438 32,000  Level Minneapolis Center
18:25 46.5536 -99.0008 210° Southwest 398 458 32,000  Level Minneapolis Center
18:26 46.4358 -99.1008 210° Southwest 407 468 32,000  Level Minneapolis Center
18:27 46.3369 -99.1844 210° Southwest 412 474 32,000  Level Minneapolis Center
18:28 46.2350 -99.2669 209° Southwest 418 481 32,000  Level Minneapolis Center
18:29 46.1253 -99.3581 210° Southwest 423 487 32,000  Level Minneapolis Center
18:31 46.0211 -99.4431 210° Southwest 429 494 32,000  Level Minneapolis Center
18:32 45.9150 -99.5300 210° Southwest 436 502 32,000  Level Minneapolis Center
18:33 45.8083 -99.6172 210° Southwest 440 506 32,000  Level Minneapolis Center
18:34 45.7003 -99.7033 209° Southwest 444 511 32,000  Level Minneapolis Center
18:35 45.5689 -99.8089 209° Southwest 450 518 32,000  Level Minneapolis Center
18:36 45.4583 -99.8967 209° Southwest 455 524 32,000  Level Minneapolis Center
18:37 45.3489 -99.9847 209° Southwest 455 524 32,000  Level Minneapolis Center
18:38 45.2400 -100.0733 210° Southwest 456 525 32,000  Level Minneapolis Center
18:39 45.1303 -100.1592 209° Southwest 458 527 32,000  Level Minneapolis Center
18:40 45.0206 -100.2450 209° Southwest 460 529 32,000  Level Minneapolis Center
18:41 44.8875 -100.3500 209° Southwest 461 531 32,000  Level Minneapolis Center
18:42 44.7761 -100.4356 209° Southwest 459 528 32,000  Level Minneapolis Center
18:43 44.6636 -100.5242 209° Southwest 462 532 32,000  Level Minneapolis Center
18:44 44.5506 -100.6108 209° Southwest 463 533 32,000  Level Minneapolis Center
18:45 44.4164 -100.7133 209° Southwest 460 529 32,000  Level Minneapolis Center
18:46 44.3269 -100.7819 209° Southwest 459 528 32,000  Level Minneapolis Center
18:47 44.1914 -100.8842 208° Southwest 460 529 32,000  Level Minneapolis Center
18:48 44.0797 -100.9694 209° Southwest 460 529 32,000  Level Minneapolis Center
18:49 43.9689 -101.0542 209° Southwest 457 526 32,000  Level Minneapolis Center
18:50 43.8569 -101.1400 209° Southwest 459 528 32,000  Level Minneapolis Center
18:51 43.7189 -101.2411 208° Southwest 466 536 32,000  Level Minneapolis Center
18:52 43.5817 -101.3447 209° Southwest 468 539 32,000  Level Minneapolis Center
18:53 43.5575 -101.3608 206° Southwest 471 542 32,000  Level Denver Center
18:54 43.4417 -101.4483 209° Southwest 474 545 32,000  Level Denver Center
18:55 43.3250 -101.5331 208° Southwest 475 547 32,000  Level Denver Center
18:56 43.1819 -101.6300 206° Southwest 480 552 32,000  Level Denver Center
18:57 43.0636 -101.7094 206° Southwest 476 548 32,000  Level Denver Center
18:58 42.9436 -101.7892 206° Southwest 475 547 32,000  Level Denver Center
18:59 42.8167 -101.8747 206° Southwest 472 543 32,000  Level Denver Center
19:00 42.7231 -101.9369 206° Southwest 470 541 32,000  Level Denver Center
19:01 42.5717 -102.0367 206° Southwest 473 544 32,000  Level Denver Center
19:02 42.4583 -102.1106 206° Southwest 472 543 32,000  Level Denver Center
19:03 42.3456 -102.1847 206° Southwest 471 542 32,000  Level Denver Center
19:04 42.2131 -102.2717 206° Southwest 472 543 32,000  Level Denver Center
19:05 42.0989 -102.3450 205° Southwest 472 543 32,000  Level Denver Center
19:06 41.9672 -102.4300 206° Southwest 471 542 32,000  Level Denver Center
19:07 41.8533 -102.5033 206° Southwest 471 542 32,000  Level Denver Center
19:08 41.7203 -102.5883 205° Southwest 472 543 32,000  Level Denver Center
19:09 41.6072 -102.6600 205° Southwest 471 542 32,000  Level Denver Center
19:10 41.4753 -102.7444 206° Southwest 471 542 32,000  Level Denver Center
19:11 41.3617 -102.8161 205° Southwest 471 542 32,000  Level Denver Center
19:12 41.2314 -102.8992 206° Southwest 466 536 32,000  Level Denver Center
19:13 41.1383 -102.9569 205° Southwest 468 539 32,000  Level Denver Center
19:14 41.0289 -103.0761 219° Southwest 455 524 32,000 -120 Level Denver Center
19:15 40.9456 -103.1950 227° Southwest 440 506 31,800 -960 Descending Denver Center
19:16 40.8456 -103.3356 227° Southwest 447 514 30,100 -1,620 Descending Denver Center
19:17 40.7597 -103.4517 226° Southwest 440 506 28,600 -1,500 Descending Denver Center
19:19 40.6769 -103.5667 227° Southwest 430 495 27,000 -1,500 Descending Denver Center
19:20 40.5972 -103.6767 226° Southwest 415 478 25,300 -1,980 Descending Denver Center
19:21 40.5064 -103.8036 227° Southwest 406 467 22,600 -2,280 Descending Denver Center
19:22 40.4194 -103.9208 226° Southwest 393 452 20,600 -1,320 Descending Denver Center
19:23 40.3542 -104.0078 225° Southwest 341 392 20,000 -1,080 Descending Denver Center
19:24 40.2822 -104.0872 220° Southwest 334 384 18,500 -1,560 Descending Denver Center
19:25 40.2031 -104.1722 219° Southwest 342 394 16,800 -1,680 Descending Denver Center
19:26 40.1433 -104.2614 229° Southwest 324 373 15,100 -1,740 Descending Denver Center
19:27 40.0819 -104.3514 228° Southwest 310 357 13,300 -1,560 Descending Denver Center
19:27 40.0667 -104.3833 238° Southwest 295 339 13,100 -180 Descending Denver TRACON
19:28 40.0167 -104.4500 226° Southwest 302 348 13,100 -840 Level Denver TRACON
19:29 39.9667 -104.5167 226° Southwest 289 333 11,600 -1,080 Descending Denver TRACON
19:30 39.9500 -104.6000 255° West 249 287 11,000 -300 Descending Denver TRACON
19:31 39.9494 -104.6936 270° West 243 280 11,100 -360 Climbing Denver Center
19:32 39.9494 -104.7800 270° West 241 277 10,300 -1,260 Descending Denver Center
19:33 39.9381 -104.8589 259° West 208 239 8,600 -1,680 Descending Denver Center